createdAt,value
2019-04-11T00:00:04.929Z,2.00
2019-04-11T00:01:05.965Z,1.90
2019-04-11T00:02:05.079Z,2.00
2019-04-11T00:03:05.741Z,2.00
2019-04-11T00:04:06.072Z,2.00
2019-04-11T00:05:10.595Z,2.00
2019-04-11T00:06:05.670Z,1.90
2019-04-11T00:07:05.865Z,1.90
2019-04-11T00:08:05.944Z,1.90
2019-04-11T00:09:06.062Z,1.90
2019-04-11T00:10:06.190Z,1.90
2019-04-11T00:11:05.908Z,1.90
2019-04-11T00:12:06.080Z,1.90
2019-04-11T00:13:17.022Z,1.90
2019-04-11T00:14:05.298Z,1.90
2019-04-11T00:15:08.577Z,1.80
2019-04-11T00:16:06.774Z,1.90
2019-04-11T00:17:05.765Z,1.80
2019-04-11T00:18:08.244Z,1.80
2019-04-11T00:19:05.373Z,1.80
2019-04-11T00:20:05.595Z,1.80
2019-04-11T00:21:04.698Z,1.80
2019-04-11T00:22:07.427Z,1.80
2019-04-11T00:23:05.906Z,1.80
2019-04-11T00:24:05.216Z,1.80
2019-04-11T00:25:05.348Z,1.80
2019-04-11T00:26:06.479Z,1.80
2019-04-11T00:27:05.659Z,1.80
2019-04-11T00:28:05.713Z,1.80
2019-04-11T00:29:05.882Z,1.70
2019-04-11T00:30:05.945Z,1.70
2019-04-11T00:31:06.268Z,1.80
2019-04-11T00:32:07.886Z,1.80
2019-04-11T00:33:05.685Z,1.70
2019-04-11T00:34:05.018Z,1.80
2019-04-11T00:35:07.798Z,1.70
2019-04-11T00:36:06.218Z,1.70
2019-04-11T00:37:05.345Z,1.70
2019-04-11T00:38:05.567Z,1.70
2019-04-11T00:39:05.544Z,1.70
2019-04-11T00:40:04.680Z,1.70
2019-04-11T00:41:05.763Z,1.70
2019-04-11T00:42:07.502Z,1.70
2019-04-11T00:43:05.416Z,1.60
2019-04-11T00:44:06.333Z,1.60
2019-04-11T00:45:05.539Z,1.70
2019-04-11T00:46:08.198Z,1.60
2019-04-11T00:47:08.843Z,1.60
2019-04-11T00:48:05.796Z,1.60
2019-04-11T00:49:10.325Z,1.60
2019-04-11T00:50:07.988Z,1.60
2019-04-11T00:51:07.755Z,1.60
2019-04-11T00:52:04.823Z,1.60
2019-04-11T00:53:05.556Z,1.60
2019-04-11T00:54:07.367Z,1.50
2019-04-11T00:55:05.613Z,1.60
2019-04-11T00:56:06.109Z,1.50
2019-04-11T00:57:08.461Z,1.50
2019-04-11T00:58:05.603Z,1.50
2019-04-11T00:59:05.825Z,1.50
2019-04-11T01:00:05.137Z,1.50
2019-04-11T01:01:05.321Z,1.50
2019-04-11T01:02:05.420Z,1.50
2019-04-11T01:03:08.064Z,1.50
2019-04-11T01:04:05.409Z,1.50
2019-04-11T01:05:05.665Z,1.50
2019-04-11T01:06:05.764Z,1.50
2019-04-11T01:07:04.980Z,1.50
2019-04-11T01:08:05.266Z,1.50
2019-04-11T01:09:06.183Z,1.60
2019-04-11T01:10:06.538Z,1.50
2019-04-11T01:11:05.744Z,1.50
2019-04-11T01:12:04.896Z,1.50
2019-04-11T01:13:05.165Z,1.50
2019-04-11T01:14:05.656Z,1.40
2019-04-11T01:15:04.956Z,1.40
2019-04-11T01:16:05.116Z,1.40
2019-04-11T01:17:06.289Z,1.40
2019-04-11T01:18:05.566Z,1.40
2019-04-11T01:19:10.801Z,1.40
2019-04-11T01:20:04.951Z,1.40
2019-04-11T01:21:06.108Z,1.40
2019-04-11T01:22:05.713Z,1.40
2019-04-11T01:23:04.873Z,1.40
2019-04-11T01:24:05.252Z,1.40
2019-04-11T01:25:06.309Z,1.40
2019-04-11T01:26:05.491Z,1.40
2019-04-11T01:27:08.238Z,1.30
2019-04-11T01:28:06.480Z,1.40
2019-04-11T01:29:04.697Z,1.40
2019-04-11T01:30:06.097Z,1.30
2019-04-11T01:31:05.353Z,1.30
2019-04-11T01:32:10.634Z,1.30
2019-04-11T01:33:06.633Z,1.30
2019-04-11T01:34:10.622Z,1.20
2019-04-11T01:35:04.844Z,1.20
2019-04-11T01:36:11.173Z,1.20
2019-04-11T01:37:05.481Z,1.20
2019-04-11T01:38:06.136Z,1.20
2019-04-11T01:39:05.464Z,1.20
2019-04-11T01:40:05.706Z,1.20
2019-04-11T01:41:10.612Z,1.10
2019-04-11T01:42:07.427Z,1.10
2019-04-11T01:43:09.694Z,1.10
2019-04-11T01:44:06.823Z,1.10
2019-04-11T01:45:05.504Z,1.10
2019-04-11T01:46:05.721Z,1.00
2019-04-11T01:47:08.666Z,1.00
2019-04-11T01:48:07.245Z,1.00
2019-04-11T01:49:08.084Z,1.00
2019-04-11T01:50:05.220Z,1.00
2019-04-11T01:51:05.427Z,1.00
2019-04-11T01:52:10.548Z,0.90
2019-04-11T01:53:06.714Z,1.00
2019-04-11T01:54:05.703Z,0.90
2019-04-11T01:55:04.930Z,1.00
2019-04-11T01:56:05.110Z,0.90
2019-04-11T01:57:05.472Z,0.90
2019-04-11T01:58:06.547Z,0.90
2019-04-11T01:59:07.203Z,0.90
2019-04-11T02:00:05.992Z,0.80
2019-04-11T02:01:06.343Z,0.90
2019-04-11T02:02:05.653Z,0.80
2019-04-11T02:03:06.614Z,0.80
2019-04-11T02:04:05.845Z,0.80
2019-04-11T02:05:05.105Z,0.80
2019-04-11T02:06:05.522Z,0.80
2019-04-11T02:07:04.671Z,0.80
2019-04-11T02:08:04.909Z,0.70
2019-04-11T02:09:08.070Z,0.70
2019-04-11T02:10:05.403Z,0.70
2019-04-11T02:11:08.207Z,0.70
2019-04-11T02:12:08.021Z,0.70
2019-04-11T02:13:05.816Z,0.70
2019-04-11T02:14:10.303Z,0.70
2019-04-11T02:15:08.245Z,0.70
2019-04-11T02:16:05.299Z,0.60
2019-04-11T02:17:06.379Z,0.70
2019-04-11T02:18:05.733Z,0.60
2019-04-11T02:19:04.901Z,0.60
2019-04-11T02:20:05.172Z,0.60
2019-04-11T02:21:05.358Z,0.60
2019-04-11T02:22:06.286Z,0.60
2019-04-11T02:23:06.649Z,0.60
2019-04-11T02:24:05.773Z,0.50
2019-04-11T02:25:05.979Z,0.60
2019-04-11T02:26:05.218Z,0.50
2019-04-11T02:27:06.485Z,0.50
2019-04-11T02:28:04.752Z,0.50
2019-04-11T02:29:05.506Z,0.40
2019-04-11T02:30:04.846Z,0.40
2019-04-11T02:31:06.977Z,0.40
2019-04-11T02:32:05.531Z,0.30
2019-04-11T02:33:07.154Z,0.40
2019-04-11T02:34:06.357Z,0.30
2019-04-11T02:35:07.502Z,0.30
2019-04-11T02:36:07.190Z,0.30
2019-04-11T02:37:05.584Z,0.30
2019-04-11T02:38:05.067Z,0.30
2019-04-11T02:39:12.781Z,0.30
2019-04-11T02:40:05.789Z,0.30
2019-04-11T02:41:06.394Z,0.30
2019-04-11T02:42:06.433Z,0.20
2019-04-11T02:43:07.079Z,0.20
2019-04-11T02:44:05.875Z,0.20
2019-04-11T02:45:19.494Z,0.20
2019-04-11T02:46:11.250Z,0.20
2019-04-11T02:47:09.333Z,0.10
2019-04-11T02:48:05.833Z,0.20
2019-04-11T02:49:05.936Z,0.10
2019-04-11T02:50:05.793Z,0.10
2019-04-11T02:51:07.438Z,0.10
2019-04-11T02:52:04.715Z,0.10
2019-04-11T02:53:09.984Z,0.10
2019-04-11T02:54:06.627Z,0.10
2019-04-11T02:55:05.755Z,0.10
2019-04-11T02:56:06.210Z,0.10
2019-04-11T02:57:05.832Z,0.10
2019-04-11T02:58:06.061Z,0.10
2019-04-11T02:59:05.362Z,0.10
2019-04-11T03:00:06.371Z,0.10
2019-04-11T03:01:07.009Z,0.10
2019-04-11T03:02:06.972Z,0.10
2019-04-11T03:03:05.766Z,0.10
2019-04-11T03:04:07.166Z,0.10
2019-04-11T03:05:06.925Z,0.10
2019-04-11T03:06:04.903Z,0.10
2019-04-11T03:07:05.821Z,0.10
2019-04-11T03:08:07.690Z,0.10
2019-04-11T03:09:06.993Z,0.10
2019-04-11T03:10:04.983Z,0.10
2019-04-11T03:11:05.300Z,0.10
2019-04-11T03:12:06.906Z,0.10
2019-04-11T03:13:05.208Z,0.10
2019-04-11T03:14:05.362Z,0.10
2019-04-11T03:15:19.766Z,0.10
2019-04-11T03:16:20.045Z,0.10
2019-04-11T03:17:12.730Z,0.10
2019-04-11T03:18:09.090Z,0.10
2019-04-11T03:19:17.545Z,0.00
2019-04-11T03:20:15.238Z,0.00
2019-04-11T03:21:11.013Z,0.00
2019-04-11T03:22:05.547Z,0.00
2019-04-11T03:23:07.589Z,0.00
2019-04-11T03:24:07.946Z,0.00
2019-04-11T03:25:05.941Z,0.00
2019-04-11T03:26:06.991Z,0.00
2019-04-11T03:27:07.660Z,0.00
2019-04-11T03:28:05.506Z,0.00
2019-04-11T03:29:08.621Z,0.00
2019-04-11T03:30:07.769Z,0.00
2019-04-11T03:31:41.416Z,0.00
2019-04-11T03:32:48.120Z,-0.10
2019-04-11T03:34:57.942Z,-0.10
2019-04-11T03:35:59.184Z,-0.10
2019-04-11T03:36:47.435Z,-0.20
2019-04-11T03:37:25.703Z,-0.20
2019-04-11T03:38:29.162Z,-0.20
2019-04-11T03:40:25.606Z,-0.20
2019-04-11T03:42:16.749Z,-0.30
2019-04-11T03:43:14.975Z,-0.30
2019-04-11T03:44:14.286Z,-0.30
2019-04-11T03:45:25.235Z,-0.30
2019-04-11T03:46:24.666Z,-0.30
2019-04-11T03:47:11.010Z,-0.30
2019-04-11T03:48:17.872Z,-0.30
2019-04-11T03:49:13.410Z,-0.40
2019-04-11T03:50:08.113Z,-0.40
2019-04-11T03:51:05.891Z,-0.40
2019-04-11T03:52:05.771Z,-0.40
2019-04-11T03:53:06.557Z,-0.50
2019-04-11T03:54:05.164Z,-0.50
2019-04-11T03:55:07.928Z,-0.50
2019-04-11T03:56:05.112Z,-0.50
2019-04-11T03:57:05.474Z,-0.50
2019-04-11T03:58:06.132Z,-0.50
2019-04-11T03:59:06.124Z,-0.50
2019-04-11T04:00:06.284Z,-0.60
2019-04-11T04:01:08.304Z,-0.50
2019-04-11T04:02:06.104Z,-0.60
2019-04-11T04:03:06.037Z,-0.60
2019-04-11T04:04:06.589Z,-0.50
2019-04-11T04:05:06.554Z,-0.50
2019-04-11T04:06:06.815Z,-0.60
2019-04-11T04:07:06.747Z,-0.50
2019-04-11T04:08:06.086Z,-0.60
2019-04-11T04:09:06.586Z,-0.50
2019-04-11T04:10:05.147Z,-0.60
2019-04-11T04:11:06.055Z,-0.60
2019-04-11T04:12:07.095Z,-0.60
2019-04-11T04:13:09.714Z,-0.60
2019-04-11T04:14:04.878Z,-0.60
2019-04-11T04:15:07.030Z,-0.60
2019-04-11T04:16:15.139Z,-0.60
2019-04-11T04:17:06.426Z,-0.60
2019-04-11T04:18:05.820Z,-0.60
2019-04-11T04:19:05.472Z,-0.60
2019-04-11T04:20:05.697Z,-0.60
2019-04-11T04:21:06.908Z,-0.60
2019-04-11T04:22:10.980Z,-0.60
2019-04-11T04:23:09.207Z,-0.60
2019-04-11T04:24:06.118Z,-0.60
2019-04-11T04:25:12.377Z,-0.60
2019-04-11T04:26:05.962Z,-0.60
2019-04-11T04:27:07.554Z,-0.60
2019-04-11T04:28:05.775Z,-0.60
2019-04-11T04:29:09.226Z,-0.60
2019-04-11T04:30:05.984Z,-0.60
2019-04-11T04:31:06.432Z,-0.70
2019-04-11T04:32:07.352Z,-0.70
2019-04-11T04:33:06.671Z,-0.60
2019-04-11T04:34:04.972Z,-0.70
2019-04-11T04:35:08.945Z,-0.60
2019-04-11T04:36:08.025Z,-0.60
2019-04-11T04:37:06.243Z,-0.70
2019-04-11T04:38:05.309Z,-0.70
2019-04-11T04:39:05.704Z,-0.70
2019-04-11T04:40:23.214Z,-0.70
2019-04-11T04:41:14.629Z,-0.60
2019-04-11T04:42:11.013Z,-0.60
2019-04-11T04:43:07.563Z,-0.70
2019-04-11T04:44:08.528Z,-0.60
2019-04-11T04:45:07.087Z,-0.70
2019-04-11T04:46:22.957Z,-0.60
2019-04-11T04:47:13.525Z,-0.70
2019-04-11T04:48:10.711Z,-0.60
2019-04-11T04:49:04.926Z,-0.60
2019-04-11T04:50:06.350Z,-0.60
2019-04-11T04:51:08.234Z,-0.60
2019-04-11T04:52:06.052Z,-0.60
2019-04-11T04:53:05.292Z,-0.60
2019-04-11T04:54:05.868Z,-0.60
2019-04-11T04:55:06.091Z,-0.60
2019-04-11T04:56:06.583Z,-0.60
2019-04-11T04:57:07.117Z,-0.50
2019-04-11T04:58:07.173Z,-0.50
2019-04-11T04:59:06.623Z,-0.50
2019-04-11T05:00:07.033Z,-0.50
2019-04-11T05:01:06.793Z,-0.50
2019-04-11T05:02:06.533Z,-0.40
2019-04-11T05:03:05.412Z,-0.30
2019-04-11T05:04:06.773Z,-0.30
2019-04-11T05:05:06.080Z,-0.20
2019-04-11T05:06:05.502Z,-0.10
2019-04-11T05:07:11.667Z,0.00
2019-04-11T05:08:06.101Z,0.00
2019-04-11T05:09:10.654Z,0.10
2019-04-11T05:10:07.092Z,0.10
2019-04-11T05:11:05.534Z,0.20
2019-04-11T05:12:05.507Z,0.30
2019-04-11T05:13:05.637Z,0.30
2019-04-11T05:14:07.031Z,0.30
2019-04-11T05:15:08.005Z,0.40
2019-04-11T05:16:12.761Z,0.40
2019-04-11T05:17:04.899Z,0.50
2019-04-11T05:18:06.046Z,0.60
2019-04-11T05:19:10.738Z,0.80
2019-04-11T05:20:05.115Z,0.80
2019-04-11T05:21:05.413Z,1.00
2019-04-11T05:22:04.939Z,1.10
2019-04-11T05:23:06.324Z,1.20
2019-04-11T05:24:06.203Z,1.40
2019-04-11T05:25:06.603Z,1.50
2019-04-11T05:26:04.979Z,1.60
2019-04-11T05:27:06.226Z,1.70
2019-04-11T05:28:06.492Z,1.80
2019-04-11T05:29:04.935Z,2.00
2019-04-11T05:30:05.119Z,2.00
2019-04-11T05:31:10.199Z,2.20
2019-04-11T05:32:05.283Z,2.10
2019-04-11T05:33:05.993Z,2.30
2019-04-11T05:34:07.886Z,2.50
2019-04-11T05:35:05.085Z,2.50
2019-04-11T05:36:05.982Z,2.60
2019-04-11T05:37:05.246Z,2.80
2019-04-11T05:38:05.619Z,2.90
2019-04-11T05:39:04.811Z,3.00
2019-04-11T05:40:05.229Z,3.00
2019-04-11T05:41:09.413Z,3.00
2019-04-11T05:42:05.552Z,2.90
2019-04-11T05:43:05.933Z,2.90
2019-04-11T05:44:09.866Z,2.80
2019-04-11T05:45:05.377Z,2.70
2019-04-11T05:46:16.155Z,2.70
2019-04-11T05:47:06.760Z,2.60
2019-04-11T05:48:05.482Z,2.60
2019-04-11T05:49:05.401Z,2.60
2019-04-11T05:50:09.117Z,2.50
2019-04-11T05:51:05.731Z,2.50
2019-04-11T05:52:10.306Z,2.40
2019-04-11T05:53:05.669Z,2.30
2019-04-11T05:54:10.684Z,2.20
2019-04-11T05:55:08.190Z,2.20
2019-04-11T05:56:05.294Z,2.20
2019-04-11T05:57:05.643Z,2.10
2019-04-11T05:58:07.735Z,2.00
2019-04-11T05:59:05.423Z,2.00
2019-04-11T06:00:05.709Z,1.90
2019-04-11T06:01:05.391Z,1.90
2019-04-11T06:02:07.222Z,1.80
2019-04-11T06:03:05.793Z,1.80
2019-04-11T06:04:05.916Z,1.70
2019-04-11T06:05:11.034Z,1.70
2019-04-11T06:06:06.426Z,1.70
2019-04-11T06:07:07.815Z,1.70
2019-04-11T06:08:06.371Z,1.60
2019-04-11T06:09:10.093Z,1.60
2019-04-11T06:10:08.350Z,1.50
2019-04-11T06:11:06.231Z,1.50
2019-04-11T06:12:05.673Z,1.50
2019-04-11T06:13:10.146Z,1.40
2019-04-11T06:14:09.006Z,1.40
2019-04-11T06:15:11.536Z,1.50
2019-04-11T06:16:06.333Z,1.40
2019-04-11T06:17:05.299Z,1.40
2019-04-11T06:18:06.719Z,1.40
2019-04-11T06:19:06.007Z,1.40
2019-04-11T06:20:06.109Z,1.40
2019-04-11T06:21:05.519Z,1.40
2019-04-11T06:22:04.813Z,1.40
2019-04-11T06:23:05.044Z,1.40
2019-04-11T06:24:08.042Z,1.30
2019-04-11T06:25:06.143Z,1.40
2019-04-11T06:26:06.596Z,1.40
2019-04-11T06:27:06.294Z,1.30
2019-04-11T06:28:06.185Z,1.40
2019-04-11T06:29:15.279Z,1.40
2019-04-11T06:30:07.574Z,1.40
2019-04-11T06:31:06.046Z,1.40
2019-04-11T06:32:05.696Z,1.50
2019-04-11T06:33:04.887Z,1.50
2019-04-11T06:34:07.594Z,1.60
2019-04-11T06:35:08.036Z,1.70
2019-04-11T06:36:07.842Z,1.70
2019-04-11T06:37:05.627Z,1.70
2019-04-11T06:38:10.102Z,1.70
2019-04-11T06:39:05.206Z,1.70
2019-04-11T06:40:05.570Z,1.80
2019-04-11T06:41:04.815Z,1.90
2019-04-11T06:42:05.891Z,1.90
2019-04-11T06:43:05.649Z,1.90
2019-04-11T06:44:05.013Z,1.90
2019-04-11T06:45:06.149Z,1.90
2019-04-11T06:46:09.008Z,2.00
2019-04-11T06:47:05.360Z,2.00
2019-04-11T06:48:05.638Z,2.00
2019-04-11T06:49:07.329Z,2.10
2019-04-11T06:50:05.311Z,2.10
2019-04-11T06:51:13.587Z,2.20
2019-04-11T06:52:08.523Z,2.30
2019-04-11T06:53:07.340Z,2.30
2019-04-11T06:54:08.243Z,2.40
2019-04-11T06:55:10.834Z,2.40
2019-04-11T06:56:04.994Z,2.40
2019-04-11T06:57:07.697Z,2.50
2019-04-11T06:58:06.679Z,2.40
2019-04-11T06:59:07.942Z,2.50
2019-04-11T07:00:07.669Z,2.50
2019-04-11T07:01:05.460Z,2.50
2019-04-11T07:02:11.402Z,2.50
2019-04-11T07:03:05.568Z,2.50
2019-04-11T07:04:05.575Z,2.50
2019-04-11T07:05:04.852Z,2.60
2019-04-11T07:06:11.294Z,2.60
2019-04-11T07:07:06.412Z,2.50
2019-04-11T07:08:09.309Z,2.60
2019-04-11T07:09:05.479Z,2.60
2019-04-11T07:10:06.053Z,2.60
2019-04-11T07:11:05.413Z,2.60
2019-04-11T07:12:05.651Z,2.70
2019-04-11T07:13:05.567Z,2.70
2019-04-11T07:14:05.899Z,2.70
2019-04-11T07:15:05.082Z,2.70
2019-04-11T07:16:05.408Z,2.70
2019-04-11T07:17:07.816Z,2.70
2019-04-11T07:18:07.434Z,2.70
2019-04-11T07:19:04.924Z,2.70
2019-04-11T07:20:05.108Z,2.70
2019-04-11T07:21:06.303Z,2.80
2019-04-11T07:22:06.779Z,2.80
2019-04-11T07:23:05.858Z,2.80
2019-04-11T07:24:05.390Z,2.90
2019-04-11T07:25:06.034Z,2.90
2019-04-11T07:26:05.467Z,2.90
2019-04-11T07:27:11.654Z,2.90
2019-04-11T07:28:05.648Z,3.00
2019-04-11T07:29:04.853Z,3.00
2019-04-11T07:30:05.503Z,3.00
2019-04-11T07:31:04.711Z,3.10
2019-04-11T07:32:05.015Z,3.10
2019-04-11T07:33:06.009Z,3.10
2019-04-11T07:34:10.692Z,3.20
2019-04-11T07:35:05.233Z,3.20
2019-04-11T07:36:05.948Z,3.20
2019-04-11T07:37:06.693Z,3.20
2019-04-11T07:38:05.040Z,3.30
2019-04-11T07:39:05.541Z,3.30
2019-04-11T07:40:05.799Z,3.40
2019-04-11T07:41:06.558Z,3.40
2019-04-11T07:42:07.030Z,3.40
2019-04-11T07:43:07.241Z,3.50
2019-04-11T07:44:05.008Z,3.50
2019-04-11T07:45:06.439Z,3.50
2019-04-11T07:46:04.801Z,3.60
2019-04-11T07:47:13.459Z,3.70
2019-04-11T07:48:07.020Z,3.80
2019-04-11T07:49:05.995Z,3.90
2019-04-11T07:50:05.807Z,4.00
2019-04-11T07:51:08.804Z,4.10
2019-04-11T07:52:04.948Z,4.10
2019-04-11T07:53:05.143Z,4.20
2019-04-11T07:54:04.883Z,4.30
2019-04-11T07:55:08.602Z,4.40
2019-04-11T07:56:05.111Z,4.40
2019-04-11T07:57:08.343Z,4.50
2019-04-11T07:58:06.401Z,4.50
2019-04-11T07:59:08.131Z,4.60
2019-04-11T08:00:05.981Z,4.60
2019-04-11T08:01:08.253Z,4.60
2019-04-11T08:02:08.762Z,4.60
2019-04-11T08:03:10.148Z,4.60
2019-04-11T08:04:06.004Z,4.60
2019-04-11T08:05:13.230Z,4.70
2019-04-11T08:06:05.384Z,4.70
2019-04-11T08:07:06.584Z,4.80
2019-04-11T08:08:06.067Z,4.90
2019-04-11T08:09:05.110Z,5.00
2019-04-11T08:10:08.176Z,5.20
2019-04-11T08:11:06.435Z,5.10
2019-04-11T08:12:04.798Z,5.30
2019-04-11T08:13:05.896Z,5.30
2019-04-11T08:14:06.333Z,5.40
2019-04-11T08:15:10.717Z,5.40
2019-04-11T08:16:08.416Z,5.40
2019-04-11T08:17:05.481Z,5.40
2019-04-11T08:18:05.041Z,5.40
2019-04-11T08:19:05.529Z,5.40
2019-04-11T08:20:08.022Z,5.30
2019-04-11T08:21:10.174Z,5.20
2019-04-11T08:22:06.357Z,5.20
2019-04-11T08:23:08.176Z,5.20
2019-04-11T08:24:05.484Z,5.20
2019-04-11T08:25:11.162Z,5.30
2019-04-11T08:26:06.103Z,5.30
2019-04-11T08:27:05.306Z,5.40
2019-04-11T08:28:07.529Z,5.40
2019-04-11T08:29:10.373Z,5.40
2019-04-11T08:30:10.879Z,5.50
2019-04-11T08:31:05.532Z,5.40
2019-04-11T08:32:04.774Z,5.50
2019-04-11T08:33:09.034Z,5.70
2019-04-11T08:34:06.841Z,5.60
2019-04-11T08:35:05.993Z,5.70
2019-04-11T08:36:05.302Z,5.80
2019-04-11T08:37:05.507Z,5.80
2019-04-11T08:38:08.146Z,5.90
2019-04-11T08:39:05.110Z,5.90
2019-04-11T08:40:09.946Z,5.90
2019-04-11T08:41:05.243Z,5.90
2019-04-11T08:42:05.488Z,5.90
2019-04-11T08:43:04.743Z,5.90
2019-04-11T08:44:05.630Z,5.90
2019-04-11T08:45:05.929Z,5.90
2019-04-11T08:46:10.908Z,6.00
2019-04-11T08:47:07.831Z,6.00
2019-04-11T08:48:05.139Z,5.90
2019-04-11T08:49:05.677Z,5.90
2019-04-11T08:50:06.069Z,5.90
2019-04-11T08:51:05.574Z,5.80
2019-04-11T08:52:05.500Z,5.80
2019-04-11T08:53:10.695Z,5.80
2019-04-11T08:54:04.914Z,5.80
2019-04-11T08:55:10.335Z,6.00
2019-04-11T08:56:08.119Z,6.00
2019-04-11T08:57:07.752Z,6.10
2019-04-11T08:58:04.886Z,6.10
2019-04-11T08:59:11.327Z,6.10
2019-04-11T09:00:06.133Z,6.10
2019-04-11T09:01:08.037Z,6.20
2019-04-11T09:02:05.172Z,2.90
2019-04-11T09:03:05.657Z,6.10
2019-04-11T09:04:07.775Z,6.00
2019-04-11T09:05:10.241Z,6.00
2019-04-11T09:06:13.131Z,6.00
2019-04-11T09:07:05.438Z,6.00
2019-04-11T09:08:05.851Z,6.00
2019-04-11T09:09:05.007Z,6.00
2019-04-11T09:10:05.188Z,6.00
2019-04-11T09:11:10.745Z,6.10
2019-04-11T09:12:04.953Z,6.10
2019-04-11T09:13:05.311Z,6.10
2019-04-11T09:14:06.017Z,6.00
2019-04-11T09:15:05.358Z,6.00
2019-04-11T09:16:10.730Z,5.90
2019-04-11T09:17:05.877Z,5.90
2019-04-11T09:18:08.881Z,5.90
2019-04-11T09:19:06.269Z,6.00
2019-04-11T09:20:05.597Z,6.00
2019-04-11T09:21:07.806Z,6.20
2019-04-11T09:22:04.884Z,6.20
2019-04-11T09:23:05.809Z,6.20
2019-04-11T09:24:08.297Z,6.30
2019-04-11T09:25:05.283Z,6.30
2019-04-11T09:26:07.932Z,6.40
2019-04-11T09:27:04.972Z,6.40
2019-04-11T09:28:11.347Z,6.50
2019-04-11T09:29:08.316Z,6.60
2019-04-11T09:30:06.399Z,6.60
2019-04-11T09:31:07.496Z,6.70
2019-04-11T09:32:07.710Z,6.80
2019-04-11T09:33:04.811Z,6.80
2019-04-11T09:34:05.774Z,6.80
2019-04-11T09:35:06.086Z,6.90
2019-04-11T09:36:05.883Z,7.00
2019-04-11T09:37:05.253Z,7.00
2019-04-11T09:38:06.360Z,7.00
2019-04-11T09:39:06.605Z,7.00
2019-04-11T09:40:05.770Z,7.00
2019-04-11T09:41:06.004Z,6.90
2019-04-11T09:42:05.309Z,6.80
2019-04-11T09:43:11.471Z,6.80
2019-04-11T09:44:08.490Z,6.70
2019-04-11T09:45:05.731Z,6.70
2019-04-11T09:46:06.119Z,6.80
2019-04-11T09:47:05.448Z,6.90
2019-04-11T09:48:11.530Z,6.80
2019-04-11T09:49:08.654Z,6.90
2019-04-11T09:50:04.910Z,6.90
2019-04-11T09:51:07.772Z,6.90
2019-04-11T09:52:05.948Z,6.90
2019-04-11T09:53:05.710Z,6.90
2019-04-11T09:54:05.617Z,6.90
2019-04-11T09:55:05.009Z,6.90
2019-04-11T09:56:05.449Z,6.90
2019-04-11T09:57:07.843Z,6.80
2019-04-11T09:58:07.463Z,6.80
2019-04-11T09:59:05.318Z,6.70
2019-04-11T10:00:05.899Z,6.70
2019-04-11T10:01:08.042Z,6.70
2019-04-11T10:02:05.876Z,6.60
2019-04-11T10:03:08.701Z,6.60
2019-04-11T10:04:04.869Z,6.60
2019-04-11T10:05:05.419Z,6.60
2019-04-11T10:06:09.284Z,6.70
2019-04-11T10:07:05.546Z,6.70
2019-04-11T10:08:04.918Z,6.70
2019-04-11T10:09:05.815Z,6.80
2019-04-11T10:10:05.285Z,6.90
2019-04-11T10:11:05.826Z,6.90
2019-04-11T10:12:10.167Z,7.00
2019-04-11T10:13:06.686Z,7.00
2019-04-11T10:14:05.300Z,7.00
2019-04-11T10:15:05.574Z,7.00
2019-04-11T10:16:05.285Z,6.90
2019-04-11T10:17:06.646Z,6.90
2019-04-11T10:18:05.662Z,6.90
2019-04-11T10:19:05.458Z,6.80
2019-04-11T10:20:04.836Z,6.70
2019-04-11T10:21:06.767Z,6.70
2019-04-11T10:22:08.844Z,6.60
2019-04-11T10:23:05.089Z,6.60
2019-04-11T10:24:05.317Z,6.60
2019-04-11T10:25:05.557Z,6.50
2019-04-11T10:26:05.076Z,6.50
2019-04-11T10:27:10.496Z,6.50
2019-04-11T10:28:07.568Z,6.50
2019-04-11T10:29:16.971Z,6.50
2019-04-11T10:30:08.609Z,6.60
2019-04-11T10:31:08.345Z,6.60
2019-04-11T10:32:06.661Z,6.60
2019-04-11T10:33:08.685Z,6.60
2019-04-11T10:34:06.041Z,6.60
2019-04-11T10:35:06.025Z,6.60
2019-04-11T10:36:05.396Z,6.70
2019-04-11T10:37:07.522Z,6.70
2019-04-11T10:38:11.750Z,6.80
2019-04-11T10:39:05.033Z,6.80
2019-04-11T10:40:05.946Z,6.90
2019-04-11T10:41:16.636Z,7.10
2019-04-11T10:42:04.940Z,7.10
2019-04-11T10:43:07.831Z,7.30
2019-04-11T10:44:05.526Z,7.30
2019-04-11T10:45:04.951Z,7.30
2019-04-11T10:46:05.519Z,7.40
2019-04-11T10:47:07.102Z,7.40
2019-04-11T10:48:05.465Z,7.40
2019-04-11T10:49:05.363Z,7.30
2019-04-11T10:50:05.560Z,7.30
2019-04-11T10:51:04.798Z,7.30
2019-04-11T10:52:05.007Z,7.20
2019-04-11T10:53:05.356Z,7.20
2019-04-11T10:54:07.225Z,7.10
2019-04-11T10:55:11.400Z,7.10
2019-04-11T10:56:06.319Z,7.10
2019-04-11T10:57:05.640Z,7.00
2019-04-11T10:58:07.282Z,7.10
2019-04-11T10:59:05.569Z,7.10
2019-04-11T11:00:07.436Z,7.10
2019-04-11T11:01:07.951Z,7.10
2019-04-11T11:02:06.330Z,7.10
2019-04-11T11:03:06.220Z,7.10
2019-04-11T11:04:05.583Z,7.00
2019-04-11T11:05:09.874Z,7.00
2019-04-11T11:06:05.459Z,7.00
2019-04-11T11:07:12.955Z,6.90
2019-04-11T11:08:08.750Z,6.90
2019-04-11T11:09:07.999Z,6.90
2019-04-11T11:10:05.408Z,6.80
2019-04-11T11:11:06.060Z,6.90
2019-04-11T11:12:05.379Z,7.00
2019-04-11T11:13:05.789Z,6.90
2019-04-11T11:14:05.102Z,6.90
2019-04-11T11:15:11.416Z,6.90
2019-04-11T11:16:06.879Z,6.90
2019-04-11T11:17:06.548Z,7.00
2019-04-11T11:18:33.010Z,7.00
2019-04-11T11:19:27.203Z,7.00
2019-04-11T11:20:11.575Z,7.00
2019-04-11T11:21:07.291Z,7.00
2019-04-11T11:22:10.741Z,7.10
2019-04-11T11:23:08.014Z,7.10
2019-04-11T11:24:07.135Z,7.10
2019-04-11T11:25:04.974Z,7.20
2019-04-11T11:26:05.338Z,7.30
2019-04-11T11:27:05.657Z,7.30
2019-04-11T11:28:05.457Z,7.30
2019-04-11T11:29:10.239Z,7.30
2019-04-11T11:30:06.116Z,7.30
2019-04-11T11:31:05.488Z,7.20
2019-04-11T11:32:05.174Z,7.20
2019-04-11T11:33:05.755Z,7.10
2019-04-11T11:34:07.627Z,7.00
2019-04-11T11:35:05.317Z,7.00
2019-04-11T11:36:08.929Z,7.00
2019-04-11T11:37:11.133Z,6.90
2019-04-11T11:38:05.996Z,6.90
2019-04-11T11:39:06.510Z,6.90
2019-04-11T11:40:09.211Z,6.90
2019-04-11T11:41:05.853Z,6.90
2019-04-11T11:42:10.370Z,7.00
2019-04-11T11:43:06.506Z,7.00
2019-04-11T11:44:05.594Z,7.00
2019-04-11T11:45:05.606Z,7.10
2019-04-11T11:46:04.875Z,7.10
2019-04-11T11:47:05.501Z,7.20
2019-04-11T11:48:08.756Z,7.30
2019-04-11T11:49:05.912Z,7.40
2019-04-11T11:50:06.124Z,7.50
2019-04-11T11:51:10.918Z,7.60
2019-04-11T11:52:05.116Z,7.60
2019-04-11T11:53:09.406Z,7.70
2019-04-11T11:54:05.203Z,7.80
2019-04-11T11:55:06.141Z,7.80
2019-04-11T11:56:05.458Z,7.90
2019-04-11T11:57:13.308Z,7.90
2019-04-11T11:58:05.547Z,7.80
2019-04-11T11:59:04.789Z,7.80
2019-04-11T12:00:07.649Z,7.70
2019-04-11T12:01:09.319Z,7.60
2019-04-11T12:02:06.400Z,7.60
2019-04-11T12:03:05.816Z,7.60
2019-04-11T12:04:05.058Z,7.50
2019-04-11T12:05:10.388Z,7.50
2019-04-11T12:06:05.349Z,7.50
2019-04-11T12:07:05.858Z,7.50
2019-04-11T12:08:08.687Z,7.60
2019-04-11T12:09:10.634Z,7.60
2019-04-11T12:10:04.920Z,7.60
2019-04-11T12:11:06.021Z,7.70
2019-04-11T12:12:06.276Z,7.70
2019-04-11T12:13:08.479Z,7.70
2019-04-11T12:14:05.645Z,7.80
2019-04-11T12:15:08.027Z,7.80
2019-04-11T12:16:05.766Z,7.80
2019-04-11T12:17:10.232Z,7.80
2019-04-11T12:18:07.408Z,7.80
2019-04-11T12:19:10.986Z,7.90
2019-04-11T12:20:08.876Z,7.90
2019-04-11T12:21:05.580Z,8.00
2019-04-11T12:22:10.463Z,8.00
2019-04-11T12:23:06.617Z,8.10
2019-04-11T12:24:06.593Z,8.10
2019-04-11T12:25:05.396Z,8.10
2019-04-11T12:26:07.598Z,8.00
2019-04-11T12:27:04.693Z,8.00
2019-04-11T12:28:09.401Z,8.00
2019-04-11T12:29:05.957Z,7.90
2019-04-11T12:30:05.776Z,7.90
2019-04-11T12:31:07.575Z,7.90
2019-04-11T12:32:08.275Z,7.80
2019-04-11T12:33:05.562Z,7.80
2019-04-11T12:34:10.293Z,7.70
2019-04-11T12:35:06.089Z,7.80
2019-04-11T12:36:05.556Z,7.70
2019-04-11T12:37:12.509Z,7.70
2019-04-11T12:38:04.899Z,7.70
2019-04-11T12:39:10.102Z,7.70
2019-04-11T12:40:05.319Z,7.70
2019-04-11T12:41:05.706Z,7.70
2019-04-11T12:42:04.945Z,7.70
2019-04-11T12:43:05.198Z,7.60
2019-04-11T12:44:08.096Z,7.60
2019-04-11T12:45:06.390Z,7.50
2019-04-11T12:46:08.311Z,7.50
2019-04-11T12:47:07.531Z,7.50
2019-04-11T12:48:05.265Z,7.50
2019-04-11T12:49:05.526Z,7.50
2019-04-11T12:50:04.779Z,7.40
2019-04-11T12:51:04.993Z,7.40
2019-04-11T12:52:07.672Z,7.30
2019-04-11T12:53:05.847Z,7.30
2019-04-11T12:54:07.543Z,7.30
2019-04-11T12:55:05.557Z,7.30
2019-04-11T12:56:07.414Z,7.30
2019-04-11T12:57:05.425Z,7.20
2019-04-11T12:58:08.131Z,7.20
2019-04-11T12:59:05.119Z,7.20
2019-04-11T13:00:05.236Z,7.20
2019-04-11T13:01:08.070Z,7.20
2019-04-11T13:02:07.699Z,7.20
2019-04-11T13:03:04.832Z,7.20
2019-04-11T13:04:05.031Z,7.20
2019-04-11T13:05:05.315Z,7.20
2019-04-11T13:06:08.061Z,7.20
2019-04-11T13:07:05.162Z,7.20
2019-04-11T13:08:08.067Z,7.20
2019-04-11T13:09:05.171Z,7.20
2019-04-11T13:10:05.555Z,7.20
2019-04-11T13:11:04.875Z,7.20
2019-04-11T13:12:07.783Z,7.20
2019-04-11T13:13:04.800Z,7.20
2019-04-11T13:14:07.506Z,7.20
2019-04-11T13:15:05.642Z,7.20
2019-04-11T13:16:11.710Z,7.10
2019-04-11T13:17:07.356Z,7.10
2019-04-11T13:18:05.373Z,7.10